createdAt,value
2017-10-19T00:01:10.424Z,53.17
2017-10-19T00:03:38.962Z,62.37
2017-10-19T00:06:07.333Z,52.87
2017-10-19T00:08:35.657Z,59.83
2017-10-19T00:11:04.881Z,55.50
2017-10-19T00:13:33.223Z,46.10
2017-10-19T00:16:02.315Z,43.07
2017-10-19T00:18:30.652Z,50.43
2017-10-19T00:20:59.467Z,48.97
2017-10-19T00:23:27.788Z,51.13
2017-10-19T00:25:56.107Z,49.30
2017-10-19T00:28:24.438Z,48.00
2017-10-19T00:30:52.795Z,52.60
2017-10-19T00:33:21.119Z,51.10
2017-10-19T00:35:49.431Z,48.87
2017-10-19T00:38:17.852Z,52.37
2017-10-19T00:40:46.162Z,54.70
2017-10-19T00:43:14.686Z,54.87
2017-10-19T00:45:43.778Z,53.70
2017-10-19T00:48:12.090Z,52.90
2017-10-19T00:50:40.774Z,50.37
2017-10-19T00:53:09.099Z,52.17
2017-10-19T00:55:37.449Z,57.33
2017-10-19T00:58:05.929Z,55.03
2017-10-19T01:00:35.010Z,53.53
2017-10-19T01:03:03.317Z,52.47
2017-10-19T01:05:32.043Z,50.40
2017-10-19T01:08:01.118Z,49.93
2017-10-19T01:10:29.472Z,47.63
2017-10-19T01:12:58.738Z,47.63
2017-10-19T01:15:27.055Z,53.30
2017-10-19T01:17:55.694Z,52.90
2017-10-19T01:20:24.059Z,50.43
2017-10-19T01:22:52.415Z,58.13
2017-10-19T01:25:21.506Z,53.03
2017-10-19T01:27:50.631Z,65.20
2017-10-19T01:30:18.952Z,55.90
2017-10-19T01:32:47.400Z,52.13
2017-10-19T01:35:15.716Z,52.57
2017-10-19T01:37:44.077Z,55.17
2017-10-19T01:40:12.414Z,52.53
2017-10-19T01:42:41.519Z,48.43
2017-10-19T01:45:10.615Z,51.30
2017-10-19T01:47:38.931Z,50.37
2017-10-19T01:50:07.260Z,52.27
2017-10-19T01:52:35.612Z,57.97
2017-10-19T01:55:03.961Z,57.00
2017-10-19T01:57:32.295Z,51.43
2017-10-19T02:00:01.396Z,53.43
2017-10-19T02:02:29.765Z,49.10
2017-10-19T02:04:58.855Z,57.67
2017-10-19T02:07:27.191Z,53.37
2017-10-19T02:09:55.652Z,57.73
2017-10-19T02:12:23.992Z,49.77
2017-10-19T02:14:52.338Z,52.73
2017-10-19T02:17:20.687Z,49.70
2017-10-19T02:19:49.172Z,53.77
2017-10-19T02:22:17.507Z,54.03
2017-10-19T02:24:45.819Z,52.00
2017-10-19T02:27:14.175Z,49.17
2017-10-19T02:29:42.454Z,48.73
2017-10-19T02:32:10.782Z,48.70
2017-10-19T02:34:39.107Z,44.37
2017-10-19T02:37:07.444Z,44.00
2017-10-19T02:39:35.759Z,51.33
2017-10-19T02:42:04.102Z,51.43
2017-10-19T02:44:33.002Z,50.83
2017-10-19T02:47:02.079Z,48.07
2017-10-19T02:49:31.179Z,51.37
2017-10-19T02:52:00.307Z,45.77
2017-10-19T02:54:28.665Z,49.43
2017-10-19T02:56:57.736Z,57.27
2017-10-19T02:59:26.070Z,49.13
2017-10-19T03:01:54.377Z,54.40
2017-10-19T03:04:22.703Z,51.33
2017-10-19T03:06:51.047Z,50.10
2017-10-19T03:09:19.950Z,50.00
2017-10-19T03:11:49.027Z,48.27
2017-10-19T03:14:17.464Z,49.77
2017-10-19T03:16:45.803Z,51.27
2017-10-19T03:19:14.889Z,50.27
2017-10-19T03:21:43.242Z,53.87
2017-10-19T03:24:11.551Z,52.60
2017-10-19T03:26:40.650Z,51.10
2017-10-19T03:29:08.998Z,49.50
2017-10-19T03:31:37.327Z,55.90
2017-10-19T03:34:05.630Z,55.70
2017-10-19T03:36:33.965Z,56.50
2017-10-19T03:39:02.295Z,56.93
2017-10-19T03:41:31.391Z,63.50
2017-10-19T03:43:59.746Z,62.10
2017-10-19T03:46:28.078Z,52.33
2017-10-19T03:48:57.168Z,47.67
2017-10-19T03:51:26.328Z,49.70
2017-10-19T03:53:54.642Z,49.10
2017-10-19T03:56:23.716Z,52.60
2017-10-19T03:58:52.045Z,46.40
2017-10-19T04:01:20.373Z,44.90
2017-10-19T04:03:49.495Z,45.40
2017-10-19T04:06:17.817Z,48.10
2017-10-19T04:08:46.152Z,43.07
2017-10-19T04:11:15.220Z,45.53
2017-10-19T04:13:43.542Z,40.33
2017-10-19T04:16:11.860Z,42.77
2017-10-19T04:18:40.203Z,39.50
2017-10-19T04:21:08.510Z,43.87
2017-10-19T04:23:37.118Z,45.57
2017-10-19T04:26:05.455Z,44.40
2017-10-19T04:28:33.761Z,42.40
2017-10-19T04:31:02.883Z,40.97
2017-10-19T04:33:31.959Z,44.37
2017-10-19T04:36:00.288Z,41.90
2017-10-19T04:38:28.622Z,46.23
2017-10-19T04:40:56.954Z,42.10
2017-10-19T04:43:25.268Z,41.67
2017-10-19T04:45:54.389Z,48.60
2017-10-19T04:48:22.730Z,46.20
2017-10-19T04:50:51.051Z,52.90
2017-10-19T04:53:20.163Z,42.90
2017-10-19T04:55:48.491Z,43.43
2017-10-19T04:58:16.823Z,40.93
2017-10-19T05:00:45.140Z,39.37
2017-10-19T05:03:13.448Z,38.00
2017-10-19T05:05:41.763Z,41.57
2017-10-19T05:08:10.082Z,45.93
2017-10-19T05:10:38.390Z,41.77
2017-10-19T05:13:06.724Z,44.10
2017-10-19T05:15:35.022Z,41.03
2017-10-19T05:18:04.211Z,47.80
2017-10-19T05:20:33.279Z,45.00
2017-10-19T05:23:01.599Z,44.03
2017-10-19T05:25:30.733Z,42.07
2017-10-19T05:27:59.043Z,48.43
2017-10-19T05:30:27.366Z,40.23
2017-10-19T05:32:55.659Z,42.07
2017-10-19T05:35:23.994Z,48.17
2017-10-19T05:37:53.077Z,50.23
2017-10-19T05:40:22.986Z,47.47
2017-10-19T05:42:51.300Z,44.97
2017-10-19T05:45:19.655Z,44.63
2017-10-19T05:47:48.721Z,44.10
2017-10-19T05:50:17.074Z,44.90
2017-10-19T05:52:45.512Z,43.33
2017-10-19T05:55:13.839Z,45.07
2017-10-19T05:57:42.176Z,49.20
2017-10-19T06:00:10.512Z,42.80
2017-10-19T06:02:38.870Z,42.57
2017-10-19T06:05:07.190Z,42.93
2017-10-19T06:07:36.275Z,37.67
2017-10-19T06:10:04.700Z,41.50
2017-10-19T06:12:33.037Z,44.43
2017-10-19T06:15:02.099Z,44.77
2017-10-19T06:17:33.374Z,44.40
2017-10-19T06:20:02.469Z,46.10
2017-10-19T06:22:31.582Z,41.17
2017-10-19T06:25:00.669Z,42.17
2017-10-19T06:27:29.742Z,47.90
2017-10-19T06:29:58.051Z,46.20
2017-10-19T06:32:26.366Z,47.10
2017-10-19T06:34:54.696Z,42.60
2017-10-19T06:37:23.774Z,44.83
2017-10-19T06:39:52.878Z,44.80
2017-10-19T06:42:21.192Z,43.17
2017-10-19T06:44:49.524Z,42.20
2017-10-19T06:47:18.584Z,49.63
2017-10-19T06:49:46.928Z,65.73
2017-10-19T06:52:15.236Z,61.50
2017-10-19T06:54:43.549Z,56.03
2017-10-19T06:57:11.875Z,55.80
2017-10-19T06:59:40.200Z,52.53
2017-10-19T07:02:09.834Z,59.53
2017-10-19T07:04:38.161Z,52.20
2017-10-19T07:07:07.284Z,55.80
2017-10-19T07:09:36.378Z,52.17
2017-10-19T07:12:04.695Z,50.00
2017-10-19T07:14:33.008Z,44.63
2017-10-19T07:17:01.355Z,50.77
2017-10-19T07:19:29.667Z,51.73
2017-10-19T07:21:57.971Z,41.80
2017-10-19T07:24:27.055Z,45.90
2017-10-19T07:26:56.125Z,44.10
2017-10-19T07:29:24.468Z,48.67
2017-10-19T07:31:52.775Z,49.53
2017-10-19T07:34:21.859Z,43.07
2017-10-19T07:36:50.153Z,39.60
2017-10-19T07:39:19.279Z,36.30
2017-10-19T07:41:48.359Z,36.43
2017-10-19T07:44:17.462Z,37.57
2017-10-19T07:46:45.792Z,41.70
2017-10-19T07:49:14.113Z,42.53
2017-10-19T07:51:42.435Z,38.37
2017-10-19T07:54:10.822Z,42.93
2017-10-19T07:56:39.171Z,35.50
2017-10-19T07:59:08.323Z,35.10
2017-10-19T08:01:36.854Z,31.70
2017-10-19T08:04:05.155Z,33.50
2017-10-19T08:06:33.502Z,33.70
2017-10-19T08:09:01.844Z,35.87
2017-10-19T08:11:30.156Z,35.33
2017-10-19T08:13:58.482Z,32.20
2017-10-19T08:16:26.783Z,34.57
2017-10-19T08:18:55.871Z,34.10
2017-10-19T08:21:24.956Z,31.77
2017-10-19T08:23:53.274Z,32.40
2017-10-19T08:26:21.572Z,35.63
2017-10-19T08:28:53.190Z,33.10
2017-10-19T08:31:21.573Z,33.03
2017-10-19T08:33:49.924Z,34.23
2017-10-19T08:36:19.008Z,33.13
2017-10-19T08:38:47.303Z,34.17
2017-10-19T08:41:15.653Z,35.87
2017-10-19T08:43:43.976Z,37.10
2017-10-19T08:46:12.295Z,35.37
2017-10-19T08:48:40.612Z,36.80
2017-10-19T08:51:08.986Z,36.07
2017-10-19T08:53:38.053Z,31.47
2017-10-19T08:56:06.413Z,31.83
2017-10-19T08:58:34.698Z,35.93
2017-10-19T09:01:03.023Z,34.40
2017-10-19T09:03:31.341Z,36.40
2017-10-19T09:05:59.704Z,39.87
2017-10-19T09:08:28.011Z,37.17
2017-10-19T09:10:56.332Z,35.10
2017-10-19T09:13:24.654Z,37.20
2017-10-19T09:15:52.977Z,33.90
2017-10-19T09:18:21.338Z,33.67
2017-10-19T09:20:49.636Z,34.50
2017-10-19T09:23:17.995Z,36.00
2017-10-19T09:25:46.347Z,37.03
2017-10-19T09:28:15.032Z,36.00
2017-10-19T09:30:43.334Z,35.13
2017-10-19T09:33:11.707Z,36.47
2017-10-19T09:35:40.019Z,36.50
2017-10-19T09:38:08.348Z,35.23
2017-10-19T09:40:37.797Z,38.63
2017-10-19T09:43:06.121Z,37.50
2017-10-19T09:45:34.442Z,32.90
2017-10-19T09:48:02.775Z,34.73
2017-10-19T09:50:31.095Z,32.57
2017-10-19T09:52:59.517Z,31.20
2017-10-19T09:55:27.854Z,35.87
2017-10-19T09:57:56.214Z,29.57
2017-10-19T10:00:25.344Z,29.13
2017-10-19T10:02:53.679Z,30.10
2017-10-19T10:05:22.763Z,29.50
2017-10-19T10:07:51.879Z,30.17
2017-10-19T10:10:20.946Z,25.37
2017-10-19T10:12:49.325Z,25.50
2017-10-19T10:15:17.634Z,25.87
2017-10-19T10:17:45.970Z,27.80
2017-10-19T10:20:14.266Z,32.20
2017-10-19T10:22:42.594Z,38.30
2017-10-19T10:25:10.926Z,31.43
2017-10-19T10:27:39.250Z,22.50
2017-10-19T10:30:07.580Z,28.47
2017-10-19T10:32:36.782Z,30.10
2017-10-19T10:35:05.144Z,25.60
2017-10-19T10:37:34.444Z,27.30
2017-10-19T10:40:02.799Z,27.20
2017-10-19T10:42:31.463Z,26.37
2017-10-19T10:44:59.814Z,25.63
2017-10-19T10:47:28.887Z,30.80
2017-10-19T10:49:58.238Z,28.57
2017-10-19T10:52:26.564Z,27.93
2017-10-19T10:54:54.910Z,26.33
2017-10-19T10:57:23.227Z,26.50
2017-10-19T10:59:52.297Z,24.00
2017-10-19T11:02:20.631Z,23.00
2017-10-19T11:04:48.936Z,20.17
2017-10-19T11:07:17.274Z,20.80
2017-10-19T11:09:45.639Z,18.50
2017-10-19T11:12:14.747Z,17.33
2017-10-19T11:14:43.058Z,22.20
2017-10-19T11:17:11.495Z,20.30
2017-10-19T11:19:40.595Z,15.60
2017-10-19T11:22:08.925Z,21.10
2017-10-19T11:24:37.280Z,20.00
2017-10-19T11:27:05.682Z,18.40
2017-10-19T11:29:33.991Z,19.87
2017-10-19T11:32:03.060Z,21.03
2017-10-19T11:34:31.375Z,20.80
2017-10-19T11:37:00.427Z,18.53
2017-10-19T11:39:28.774Z,19.50
2017-10-19T11:41:57.104Z,21.33
2017-10-19T11:44:26.229Z,25.20
2017-10-19T11:46:54.540Z,23.80
2017-10-19T11:49:23.671Z,23.73
2017-10-19T11:51:52.760Z,20.73
2017-10-19T11:54:21.847Z,20.27
2017-10-19T11:56:50.182Z,25.03
2017-10-19T11:59:19.275Z,20.90
2017-10-19T12:01:47.599Z,20.43
2017-10-19T12:04:16.704Z,21.37
2017-10-19T12:06:45.801Z,23.40
2017-10-19T12:09:14.122Z,26.77
2017-10-19T12:11:42.456Z,23.33
2017-10-19T12:14:11.524Z,24.07
2017-10-19T12:16:39.875Z,22.20
2017-10-19T12:19:08.174Z,20.87
2017-10-19T12:21:36.471Z,19.23
2017-10-19T12:24:04.795Z,18.83
2017-10-19T12:26:33.125Z,19.67
2017-10-19T12:29:02.240Z,18.63
2017-10-19T12:31:31.320Z,20.00
2017-10-19T12:33:59.648Z,18.90
2017-10-19T12:36:27.964Z,19.73
2017-10-19T12:38:56.315Z,41.63
2017-10-19T12:41:24.643Z,21.77
2017-10-19T12:43:52.987Z,25.67
2017-10-19T12:46:21.290Z,22.10
2017-10-19T12:48:50.411Z,18.80
2017-10-19T12:51:18.740Z,20.80
2017-10-19T12:53:47.076Z,19.93
2017-10-19T12:56:15.386Z,18.60
2017-10-19T12:58:43.695Z,19.63
2017-10-19T13:01:12.787Z,21.33
2017-10-19T13:03:41.120Z,20.23
2017-10-19T13:06:09.459Z,16.90
2017-10-19T13:08:37.778Z,21.27
2017-10-19T13:11:06.099Z,26.20
2017-10-19T13:13:34.403Z,18.30
2017-10-19T13:16:02.777Z,20.17
2017-10-19T13:18:31.086Z,17.57
2017-10-19T13:20:59.417Z,18.63
2017-10-19T13:23:27.743Z,18.77
2017-10-19T13:25:56.844Z,18.70
2017-10-19T13:28:25.165Z,20.07
2017-10-19T13:30:53.486Z,19.17
2017-10-19T13:33:21.821Z,18.00
2017-10-19T13:35:50.130Z,22.83
2017-10-19T13:38:18.458Z,20.30
2017-10-19T13:40:47.535Z,15.50
2017-10-19T13:43:16.036Z,19.33
2017-10-19T13:45:44.375Z,20.73
2017-10-19T13:48:12.701Z,18.73
2017-10-19T13:50:41.089Z,18.97
2017-10-19T13:53:09.722Z,20.60
2017-10-19T13:55:38.250Z,21.40
2017-10-19T13:58:06.774Z,20.03
2017-10-19T14:00:35.114Z,22.10
2017-10-19T14:03:03.633Z,18.93
2017-10-19T14:05:31.955Z,20.63
2017-10-19T14:08:00.300Z,23.97
2017-10-19T14:10:29.390Z,22.07
2017-10-19T14:12:57.758Z,21.20
2017-10-19T14:15:26.862Z,22.07
2017-10-19T14:17:55.999Z,22.00
2017-10-19T14:20:25.089Z,23.27
2017-10-19T14:22:54.188Z,22.07
2017-10-19T14:25:22.659Z,22.60
2017-10-19T14:27:51.025Z,23.73
2017-10-19T14:30:19.368Z,22.57
2017-10-19T14:32:47.770Z,22.50
2017-10-19T14:35:16.241Z,22.03
2017-10-19T14:37:44.594Z,25.20
2017-10-19T14:40:12.968Z,22.00
2017-10-19T14:42:41.342Z,24.93
2017-10-19T14:45:09.678Z,23.93
2017-10-19T14:47:38.054Z,25.77
2017-10-19T14:50:06.531Z,25.13
2017-10-19T14:52:34.831Z,25.17
2017-10-19T14:55:03.189Z,23.80
2017-10-19T14:57:32.286Z,25.57
2017-10-19T15:00:01.403Z,25.50
2017-10-19T15:02:29.766Z,25.53
2017-10-19T15:04:58.115Z,23.30
2017-10-19T15:07:26.555Z,27.00
2017-10-19T15:09:55.032Z,24.37
2017-10-19T15:12:24.158Z,22.57
2017-10-19T15:14:52.507Z,25.87
2017-10-19T15:17:21.854Z,22.33
2017-10-19T15:19:50.937Z,24.30
2017-10-19T15:22:19.320Z,23.27
2017-10-19T15:24:47.746Z,26.10
2017-10-19T15:27:16.935Z,23.17
2017-10-19T15:29:45.292Z,23.10
2017-10-19T15:32:13.701Z,23.37
2017-10-19T15:34:42.073Z,23.47
2017-10-19T15:37:10.410Z,25.47
2017-10-19T15:39:39.779Z,24.33
2017-10-19T15:42:08.101Z,22.63
2017-10-19T15:44:36.502Z,23.10
2017-10-19T15:47:04.856Z,21.97
2017-10-19T15:49:33.179Z,23.20
2017-10-19T15:52:01.541Z,25.57
2017-10-19T15:54:29.911Z,25.00
2017-10-19T15:56:58.267Z,23.00
2017-10-19T15:59:27.470Z,24.47
2017-10-19T16:01:55.794Z,22.73
2017-10-19T16:04:24.338Z,27.70
2017-10-19T16:06:53.450Z,22.97
2017-10-19T16:09:21.901Z,25.20
2017-10-19T16:11:50.289Z,24.37
2017-10-19T16:14:18.618Z,21.90
2017-10-19T16:16:47.081Z,22.10
2017-10-19T16:19:15.510Z,24.10
2017-10-19T16:21:43.890Z,22.70
2017-10-19T16:24:12.252Z,24.07
2017-10-19T16:26:41.417Z,24.93
2017-10-19T16:29:09.788Z,26.03
2017-10-19T16:31:42.527Z,24.50
2017-10-19T16:34:11.008Z,23.17
2017-10-19T16:36:39.452Z,21.67
2017-10-19T16:39:08.592Z,22.73
2017-10-19T16:41:36.944Z,24.83
2017-10-19T16:44:06.116Z,21.53
2017-10-19T16:46:34.736Z,22.77
2017-10-19T16:49:03.287Z,23.73
2017-10-19T16:51:32.400Z,21.70
2017-10-19T16:54:00.799Z,22.23
2017-10-19T16:56:29.183Z,22.13
2017-10-19T16:58:57.539Z,23.50
2017-10-19T17:01:25.899Z,25.73
2017-10-19T17:03:55.060Z,21.93
2017-10-19T17:06:23.409Z,24.37
2017-10-19T17:08:52.099Z,22.47
2017-10-19T17:11:21.246Z,22.63
2017-10-19T17:13:50.438Z,21.87
2017-10-19T17:16:18.874Z,21.70
2017-10-19T17:18:48.069Z,22.40
2017-10-19T17:21:16.563Z,22.53
2017-10-19T17:23:44.944Z,21.77
2017-10-19T17:26:13.380Z,21.63
2017-10-19T17:28:41.696Z,22.40
2017-10-19T17:31:10.376Z,21.53
2017-10-19T17:33:38.775Z,21.43
2017-10-19T17:36:07.513Z,22.97
2017-10-19T17:38:36.685Z,21.80
2017-10-19T17:41:04.966Z,22.87
2017-10-19T17:43:33.323Z,22.23
2017-10-19T17:46:01.663Z,23.00
2017-10-19T17:48:30.896Z,22.87
2017-10-19T17:50:59.228Z,22.33
2017-10-19T17:53:27.681Z,23.17
2017-10-19T17:55:55.987Z,23.80
2017-10-19T17:58:24.367Z,22.73
2017-10-19T18:00:53.440Z,22.87
2017-10-19T18:03:21.795Z,22.47
2017-10-19T18:05:50.115Z,22.57
2017-10-19T18:08:19.262Z,21.93
2017-10-19T18:10:48.398Z,21.60
2017-10-19T18:13:17.480Z,25.30
2017-10-19T18:15:46.600Z,23.17
2017-10-19T18:18:15.016Z,22.90
2017-10-19T18:20:43.339Z,25.80
2017-10-19T18:23:11.654Z,22.93
2017-10-19T18:25:40.015Z,24.77
2017-10-19T18:28:08.364Z,22.90
2017-10-19T18:30:37.482Z,23.30
2017-10-19T18:33:06.804Z,24.60
2017-10-19T18:35:35.114Z,23.90
2017-10-19T18:38:03.432Z,26.80
2017-10-19T18:40:31.796Z,26.33
2017-10-19T18:43:00.126Z,23.80
2017-10-19T18:45:28.435Z,26.93
2017-10-19T18:47:56.793Z,28.60
2017-10-19T18:50:25.123Z,25.17
2017-10-19T18:52:53.449Z,25.00
2017-10-19T18:55:21.778Z,22.37
2017-10-19T18:57:50.135Z,24.57
2017-10-19T19:00:19.211Z,24.93
2017-10-19T19:02:47.564Z,24.90
2017-10-19T19:05:15.932Z,24.10
2017-10-19T19:07:44.382Z,24.27
2017-10-19T19:10:12.724Z,24.70
2017-10-19T19:12:41.884Z,24.07
2017-10-19T19:15:10.375Z,24.87
2017-10-19T19:17:38.717Z,24.40
2017-10-19T19:20:07.851Z,25.83
2017-10-19T19:22:36.213Z,25.73
2017-10-19T19:25:05.017Z,27.20
2017-10-19T19:27:33.783Z,26.70
2017-10-19T19:30:02.724Z,29.80
2017-10-19T19:32:31.216Z,28.13
2017-10-19T19:35:00.356Z,27.27
2017-10-19T19:37:28.659Z,27.37
2017-10-19T19:39:56.997Z,25.17
2017-10-19T19:42:25.360Z,25.50
2017-10-19T19:44:53.681Z,27.80
2017-10-19T19:47:22.024Z,26.23
2017-10-19T19:49:50.349Z,26.40
2017-10-19T19:52:18.690Z,26.93
2017-10-19T19:54:47.786Z,25.90
2017-10-19T19:57:16.141Z,26.17
2017-10-19T19:59:44.460Z,26.87
2017-10-19T20:02:12.793Z,27.17
2017-10-19T20:04:41.135Z,26.27
2017-10-19T20:07:09.456Z,26.17
2017-10-19T20:09:38.543Z,26.70
2017-10-19T20:12:06.844Z,28.27
2017-10-19T20:14:35.183Z,26.80
2017-10-19T20:17:04.259Z,27.97
2017-10-19T20:19:32.650Z,27.37
2017-10-19T20:22:00.951Z,26.13
2017-10-19T20:24:30.047Z,24.93
2017-10-19T20:26:59.111Z,28.40
2017-10-19T20:29:27.475Z,25.70
2017-10-19T20:31:55.809Z,25.43
2017-10-19T20:34:24.122Z,25.03
2017-10-19T20:36:52.451Z,22.60
2017-10-19T20:39:20.760Z,24.20
2017-10-19T20:41:49.118Z,24.73
2017-10-19T20:44:17.427Z,24.23
2017-10-19T20:46:45.799Z,24.27
2017-10-19T20:49:14.165Z,25.60
2017-10-19T20:51:42.488Z,26.50
2017-10-19T20:54:10.844Z,26.10
2017-10-19T20:56:39.211Z,25.30
2017-10-19T20:59:07.524Z,23.87
2017-10-19T21:01:36.600Z,25.83
2017-10-19T21:04:04.929Z,25.00
2017-10-19T21:06:33.223Z,25.10
2017-10-19T21:09:01.552Z,26.30
2017-10-19T21:11:29.885Z,24.90
2017-10-19T21:13:58.218Z,24.33
2017-10-19T21:16:26.551Z,24.10
2017-10-19T21:18:54.966Z,23.37
2017-10-19T21:21:23.308Z,24.93
2017-10-19T21:23:51.729Z,23.80
2017-10-19T21:26:20.791Z,26.93
2017-10-19T21:28:49.103Z,25.70
2017-10-19T21:31:17.443Z,26.70
2017-10-19T21:33:45.796Z,23.43
2017-10-19T21:36:14.159Z,25.57
2017-10-19T21:38:42.475Z,26.50
2017-10-19T21:41:10.814Z,23.90
2017-10-19T21:43:39.135Z,25.20
2017-10-19T21:46:07.479Z,24.60
2017-10-19T21:48:35.795Z,25.40
2017-10-19T21:51:04.911Z,23.87
2017-10-19T21:53:33.220Z,26.17
2017-10-19T21:56:01.553Z,24.77
2017-10-19T21:58:30.661Z,24.13
2017-10-19T22:00:58.979Z,27.70
2017-10-19T22:03:27.299Z,26.80
2017-10-19T22:05:56.379Z,27.33
2017-10-19T22:08:24.717Z,26.27
2017-10-19T22:10:53.032Z,25.93
2017-10-19T22:13:22.146Z,25.17
2017-10-19T22:15:51.222Z,27.40
2017-10-19T22:18:19.575Z,25.57
2017-10-19T22:20:47.882Z,24.43
2017-10-19T22:23:16.227Z,24.00
2017-10-19T22:25:44.558Z,24.97
2017-10-19T22:28:12.879Z,25.20
2017-10-19T22:30:41.239Z,24.60
2017-10-19T22:33:09.556Z,25.57
2017-10-19T22:35:37.895Z,24.83
2017-10-19T22:38:06.240Z,26.07
2017-10-19T22:40:34.582Z,23.37
2017-10-19T22:43:02.897Z,25.87
2017-10-19T22:45:31.243Z,24.60
2017-10-19T22:47:59.587Z,26.00
2017-10-19T22:50:27.936Z,24.27
2017-10-19T22:52:57.938Z,25.50
2017-10-19T22:55:26.280Z,26.17
2017-10-19T22:57:55.408Z,27.63
2017-10-19T23:00:23.735Z,28.67
2017-10-19T23:02:52.092Z,25.50
2017-10-19T23:05:20.399Z,26.53
2017-10-19T23:07:48.742Z,24.10
2017-10-19T23:10:17.076Z,24.90
2017-10-19T23:12:45.415Z,27.07
2017-10-19T23:15:13.706Z,25.40
2017-10-19T23:17:42.000Z,27.23
2017-10-19T23:20:11.863Z,23.60
2017-10-19T23:22:40.190Z,25.07
2017-10-19T23:25:08.519Z,26.00
2017-10-19T23:27:36.855Z,29.83
2017-10-19T23:30:06.063Z,24.80
2017-10-19T23:32:34.476Z,24.90
2017-10-19T23:35:02.827Z,25.00
2017-10-19T23:37:31.151Z,23.50
2017-10-19T23:39:59.483Z,25.73
2017-10-19T23:42:27.830Z,26.80
2017-10-19T23:44:56.927Z,25.47
2017-10-19T23:47:25.299Z,22.63
2017-10-19T23:49:54.400Z,24.50
2017-10-19T23:52:22.752Z,23.77
2017-10-19T23:54:51.059Z,27.43
2017-10-19T23:57:19.406Z,24.80
2017-10-19T23:59:47.742Z,25.30
